Time;durP1;ratioP1;P1;durP2;ratioP2;P2;SDS_P1;SDS_P2;PMS_P1;PMS_P2;Temp;Humidity;BMP_temperature;BMP_pressure;BME280_temperature;BME280_humidity;BME280_pressure;Samples;Min_cycle;Max_cycle;Signal;HPM_P1;HPM_P2
2022/04/08 01:10:12;;;;;;;1.30;0.50;;;;;;;19.70;48.85;99161.25;5075336;28;20122;-88
2022/04/08 01:12:37;;;;;;;1.67;0.60;;;;;;;19.68;48.67;99158.72;5077776;28;20032;-88
2022/04/08 01:15:09;;;;;;;1.40;0.68;;;;;;;19.67;48.82;99158.81;5078772;28;20032;-89
2022/04/08 01:24:29;;;;;;;1.25;0.50;;;;;;;19.65;48.61;99155.38;5079551;28;20039;-89
2022/04/08 01:27:32;;;;;;;0.93;0.52;;;;;;;19.64;48.83;99146.63;5077677;28;20041;-89
2022/04/08 01:30:29;;;;;;;2.28;0.50;;;;;;;19.64;48.77;99143.97;5078721;28;20021;-89
2022/04/08 01:33:16;;;;;;;1.45;0.40;;;;;;;19.64;48.81;99132.50;5080926;28;20016;-89
2022/04/08 01:35:42;;;;;;;0.90;0.30;;;;;;;19.63;48.81;99131.69;5078874;28;20024;-89
2022/04/08 01:38:07;;;;;;;0.75;0.40;;;;;;;19.63;48.70;99128.16;5079089;28;20026;-89
2022/04/08 01:41:07;;;;;;;0.80;0.45;;;;;;;19.62;48.65;99113.25;5095565;28;20021;-90
2022/04/08 01:43:45;;;;;;;1.05;0.40;;;;;;;19.62;48.75;99113.25;5079128;28;20354;-88
2022/04/08 01:46:11;;;;;;;0.98;0.50;;;;;;;19.62;48.77;99103.50;5079949;28;20402;-88
2022/04/08 01:48:47;;;;;;;1.08;0.40;;;;;;;19.62;48.53;99094.72;5079212;28;20424;-89
2022/04/08 01:54:34;;;;;;;1.15;0.43;;;;;;;19.62;48.67;99100.00;5082008;28;20445;-89
2022/04/08 01:57:13;;;;;;;0.82;0.30;;;;;;;19.62;48.67;99105.28;5081405;28;20547;-89
2022/04/08 01:59:39;;;;;;;1.25;0.38;;;;;;;19.62;48.79;99086.78;5081077;28;20028;-89
2022/04/08 02:02:36;;;;;;;1.83;0.50;;;;;;;19.61;48.77;99085.06;5082442;28;20112;-89
2022/04/08 02:05:02;;;;;;;0.93;0.45;;;;;;;19.61;48.50;99085.91;5088442;28;20064;-89
2022/04/08 02:08:09;;;;;;;1.88;0.50;;;;;;;19.61;48.63;99074.50;5081438;28;20025;-90
2022/04/08 02:14:39;;;;;;;0.73;0.30;;;;;;;19.60;48.88;99078.91;5078620;28;20044;-90
2022/04/08 02:17:05;;;;;;;1.17;0.50;;;;;;;19.56;48.68;99072.97;5077032;28;20101;-89
2022/04/08 02:19:31;;;;;;;1.00;0.50;;;;;;;19.56;48.80;99070.31;5075402;28;20525;-89
2022/04/08 02:22:40;;;;;;;1.15;0.40;;;;;;;19.58;48.75;99072.88;5075683;28;20029;-88
2022/04/08 02:25:06;;;;;;;1.55;0.40;;;;;;;19.56;48.67;99072.97;5078224;28;20116;-89
2022/04/08 02:27:41;;;;;;;0.52;0.30;;;;;;;19.58;48.91;99064.94;5076356;28;20062;-89
2022/04/08 03:21:30;;;;;;;0.60;0.40;;;;;;;19.46;48.94;99021.53;5081251;28;20071;-88
2022/04/08 03:24:10;;;;;;;1.35;0.38;;;;;;;19.45;48.81;99022.50;5081961;28;20028;-89
2022/04/08 03:26:36;;;;;;;0.60;0.35;;;;;;;19.44;48.96;99016.38;5081485;28;20042;-88
2022/04/08 03:29:17;;;;;;;0.55;0.40;;;;;;;19.44;48.85;99011.06;5080474;28;20028;-88
2022/04/08 03:31:43;;;;;;;0.60;0.30;;;;;;;19.43;48.68;99014.66;5080621;28;20134;-89
2022/04/08 03:34:11;;;;;;;0.68;0.30;;;;;;;19.43;48.69;99019.09;5082186;28;20044;-88
2022/04/08 03:36:37;;;;;;;0.85;0.65;;;;;;;19.44;48.76;99026.09;5081296;28;20032;-88
2022/04/08 03:39:02;;;;;;;1.95;0.30;;;;;;;19.44;48.61;99020.81;5082682;28;20028;-89
2022/04/08 03:41:37;;;;;;;1.05;0.38;;;;;;;19.45;49.05;99017.19;5080531;28;20021;-89
2022/04/08 03:44:34;;;;;;;1.15;0.35;;;;;;;19.45;48.92;99011.91;5079019;28;20476;-88
2022/04/08 03:46:59;;;;;;;0.93;0.20;;;;;;;19.43;48.86;99000.59;5080472;28;20024;-89
2022/04/08 03:49:26;;;;;;;0.82;0.38;;;;;;;19.43;48.72;98992.66;5079328;28;20182;-88
2022/04/08 03:52:17;;;;;;;1.85;0.50;;;;;;;19.43;48.89;98987.34;5079413;28;20472;-87
2022/04/08 03:54:42;;;;;;;0.75;0.47;;;;;;;19.42;48.83;98988.31;5079714;28;20029;-88
2022/04/08 03:57:08;;;;;;;1.45;0.57;;;;;;;19.40;48.58;98988.38;5079526;28;20021;-89
2022/04/08 03:59:33;;;;;;;1.30;0.30;;;;;;;19.41;49.09;98991.88;5081371;28;20103;-88
2022/04/08 04:02:08;;;;;;;1.00;0.52;;;;;;;19.40;48.86;98987.53;5082120;28;20154;-88
2022/04/08 04:04:40;;;;;;;1.10;0.30;;;;;;;19.41;48.72;98994.50;5083442;28;20044;-89
2022/04/08 04:07:18;;;;;;;0.63;0.32;;;;;;;19.39;48.97;98991.13;5082133;28;20038;-89
2022/04/08 04:10:05;;;;;;;1.55;0.40;;;;;;;19.38;48.99;98992.06;5085517;28;20060;-90
2022/04/08 04:12:31;;;;;;;0.95;0.50;;;;;;;19.38;48.92;98992.06;5085165;28;20047;-90
2022/04/08 04:15:40;;;;;;;1.08;0.35;;;;;;;19.37;48.78;98982.44;5085307;28;20032;-90
2022/04/08 04:18:31;;;;;;;0.63;0.30;;;;;;;19.37;48.84;98982.44;5085607;28;20044;-90
2022/04/08 04:21:12;;;;;;;0.75;0.45;;;;;;;19.36;48.87;98971.00;5086179;28;20462;-90
2022/04/08 04:24:12;;;;;;;1.17;0.32;;;;;;;19.35;49.02;98971.09;5089304;28;20054;-90
2022/04/08 04:26:37;;;;;;;1.27;0.50;;;;;;;19.35;48.93;98968.44;5095179;28;20029;-89
2022/04/08 04:29:03;;;;;;;1.23;0.47;;;;;;;19.34;49.02;98977.31;5083291;28;20029;-89
2022/04/08 04:31:29;;;;;;;0.63;0.40;;;;;;;19.34;48.81;98969.38;5080001;28;20105;-89
2022/04/08 04:33:54;;;;;;;0.55;0.30;;;;;;;19.34;49.02;98969.38;5080878;28;20114;-89
2022/04/08 04:36:20;;;;;;;0.85;0.30;;;;;;;19.35;49.00;98971.09;5079919;28;20446;-89
2022/04/08 04:38:45;;;;;;;0.73;0.20;;;;;;;19.33;49.03;98965.91;5079537;28;20058;-88
2022/04/08 04:41:11;;;;;;;1.15;0.40;;;;;;;19.31;48.83;98976.59;5082260;28;20032;-90
2022/04/08 04:43:36;;;;;;;0.63;0.35;;;;;;;19.32;48.93;98969.47;5081942;28;20024;-88
2022/04/08 04:46:03;;;;;;;0.98;0.35;;;;;;;19.32;48.94;98957.13;5080459;28;20442;-89
2022/04/08 04:48:30;;;;;;;0.95;0.30;;;;;;;19.33;49.09;98960.63;5081210;28;20079;-89
2022/04/08 04:50:56;;;;;;;0.80;0.30;;;;;;;19.34;49.02;98956.16;5080640;28;20373;-91
2022/04/08 04:53:23;;;;;;;0.30;0.30;;;;;;;19.32;48.77;98953.59;5081927;28;20515;-89
2022/04/08 04:55:49;;;;;;;2.45;0.88;;;;;;;19.31;48.88;98952.78;5083812;28;20028;-91
2022/04/08 04:58:14;;;;;;;1.20;0.40;;;;;;;19.30;48.94;98944.94;5081471;28;20481;-89
2022/04/08 05:00:40;;;;;;;1.30;0.60;;;;;;;19.30;48.90;98945.78;5081087;28;20063;-91
2022/04/08 05:03:08;;;;;;;0.98;0.32;;;;;;;19.31;49.01;98947.47;5079862;28;20021;-89
2022/04/08 05:05:33;;;;;;;1.60;0.50;;;;;;;19.29;49.19;98945.88;5079887;28;20020;-88
2022/04/08 05:08:06;;;;;;;1.10;0.50;;;;;;;19.29;49.32;98949.38;5078975;28;20032;-90
2022/04/08 05:10:33;;;;;;;1.60;0.30;;;;;;;19.30;48.92;98943.16;5085010;28;20029;-88
2022/04/08 05:13:01;;;;;;;1.52;0.32;;;;;;;19.28;48.86;98937.06;5081937;28;20028;-89
2022/04/08 05:15:32;;;;;;;0.93;0.40;;;;;;;19.27;48.80;98935.38;5082737;28;20064;-92
2022/04/08 05:17:58;;;;;;;1.25;0.47;;;;;;;19.28;48.84;98925.66;5068973;28;20374;-90
2022/04/08 05:20:24;;;;;;;1.77;0.40;;;;;;;19.27;48.97;98930.09;5080132;28;20093;-89
2022/04/08 05:22:49;;;;;;;1.90;0.40;;;;;;;19.27;49.08;98922.16;5080532;28;20401;-89
2022/04/08 05:25:15;;;;;;;0.93;0.30;;;;;;;19.26;49.04;98927.53;5084611;28;20035;-89
2022/04/08 05:27:42;;;;;;;1.27;0.40;;;;;;;19.27;48.87;98919.50;5089152;28;20033;-89
2022/04/08 05:30:22;;;;;;;1.50;0.50;;;;;;;19.27;48.79;98914.22;5087994;28;20086;-89
2022/04/08 05:33:13;;;;;;;0.32;0.20;;;;;;;19.26;48.84;98912.53;5083025;28;20016;-89
2022/04/08 05:35:54;;;;;;;0.65;0.30;;;;;;;19.26;49.32;98914.31;5105289;28;20118;-90
2022/04/08 05:41:47;;;;;;;1.15;0.40;;;;;;;19.26;49.05;98909.88;5085109;28;20047;-88
2022/04/08 05:44:16;;;;;;;2.90;0.80;;;;;;;19.27;49.05;98903.63;5087634;28;20040;-90
2022/04/08 05:46:44;;;;;;;2.45;0.40;;;;;;;19.27;49.10;98893.06;5103766;28;20066;-89
2022/04/08 05:49:10;;;;;;;2.90;0.95;;;;;;;19.25;49.14;98889.66;5102658;28;20069;-90
2022/04/08 05:51:35;;;;;;;1.23;0.50;;;;;;;19.25;48.94;98881.75;5086498;28;20032;-90
2022/04/08 05:54:04;;;;;;;0.93;0.30;;;;;;;19.25;49.40;98884.38;5086111;28;20055;-89
2022/04/08 05:56:29;;;;;;;2.05;0.70;;;;;;;19.25;49.04;98889.66;5103745;28;20480;-89
2022/04/08 05:58:57;;;;;;;1.95;0.63;;;;;;;19.26;49.01;98886.06;5103472;28;20099;-89
2022/04/08 06:01:23;;;;;;;1.50;0.70;;;;;;;19.27;49.26;98882.47;5089441;28;20028;-90
2022/04/08 06:03:48;;;;;;;1.08;0.50;;;;;;;19.26;48.97;98880.78;5104857;28;20096;-90
2022/04/08 06:06:14;;;;;;;1.85;0.52;;;;;;;19.27;49.24;98892.22;5088350;28;20028;-90
2022/04/08 06:08:40;;;;;;;1.02;0.40;;;;;;;19.24;49.32;98885.34;5087634;28;20036;-90
2022/04/08 06:11:05;;;;;;;1.15;0.35;;;;;;;19.27;49.07;98884.28;5102357;28;20020;-89
2022/04/08 06:13:31;;;;;;;0.98;0.60;;;;;;;19.27;49.17;98887.78;5099630;28;20024;-90
2022/04/08 06:15:56;;;;;;;1.05;0.40;;;;;;;19.26;49.18;98880.78;5098671;28;20036;-90
2022/04/08 06:18:22;;;;;;;1.65;0.50;;;;;;;19.26;49.29;98879.94;5099323;28;20052;-90
2022/04/08 06:20:48;;;;;;;1.42;0.68;;;;;;;19.25;49.23;98876.44;5098457;28;20046;-89
2022/04/08 06:23:14;;;;;;;1.33;0.43;;;;;;;19.25;49.40;98879.09;5099729;28;20099;-90
2022/04/08 06:25:39;;;;;;;2.40;0.80;;;;;;;19.27;49.33;98882.47;5100193;28;20047;-90
2022/04/08 06:28:07;;;;;;;2.00;0.73;;;;;;;19.26;49.33;98880.78;5098652;28;20442;-91
2022/04/08 06:30:38;;;;;;;1.75;0.50;;;;;;;19.27;49.54;98882.47;5086018;28;20029;-91
2022/04/08 06:33:05;;;;;;;1.38;0.68;;;;;;;19.28;49.49;98884.16;5101825;28;20028;-90
2022/04/08 06:35:31;;;;;;;2.10;0.47;;;;;;;19.28;49.52;98886.81;5086483;28;20032;-89
2022/04/08 06:38:01;;;;;;;2.35;0.60;;;;;;;19.30;49.48;98877.00;5099514;28;20454;-91
2022/04/08 06:40:27;;;;;;;2.17;0.65;;;;;;;19.30;49.60;98877.00;5100720;28;20454;-88
2022/04/08 06:43:00;;;;;;;0.88;0.45;;;;;;;19.33;49.53;98870.69;5106156;28;20032;-91
2022/04/08 06:45:26;;;;;;;3.22;0.57;;;;;;;19.31;49.61;98862.84;5085845;28;20024;-90
2022/04/08 06:47:53;;;;;;;3.42;0.90;;;;;;;19.30;49.19;98865.56;5105006;28;20103;-91
2022/04/08 06:50:19;;;;;;;1.60;0.55;;;;;;;19.30;49.55;98866.44;5115016;28;20076;-91
2022/04/08 06:52:45;;;;;;;1.90;0.57;;;;;;;19.31;49.30;98867.25;5108518;28;20020;-90
2022/04/08 06:55:11;;;;;;;2.33;0.60;;;;;;;19.30;49.56;98847.91;5103484;28;20033;-90
2022/04/08 06:57:37;;;;;;;1.08;0.40;;;;;;;19.30;49.46;98855.84;5104366;28;20039;-92
2022/04/08 07:00:08;;;;;;;2.70;0.70;;;;;;;19.31;49.43;98862.84;5104215;28;20040;-91
2022/04/08 07:02:33;;;;;;;1.65;0.70;;;;;;;19.31;49.62;98852.25;5086330;28;20016;-90
2022/04/08 07:04:59;;;;;;;2.10;0.50;;;;;;;19.32;49.50;98859.22;5085962;28;20091;-91
2022/04/08 07:07:30;;;;;;;3.28;0.65;;;;;;;19.34;49.53;98866.22;5085713;28;20092;-90
2022/04/08 07:09:59;;;;;;;1.25;0.55;;;;;;;19.35;49.45;98857.31;5102602;28;20028;-91
2022/04/08 07:12:25;;;;;;;2.15;0.80;;;;;;;19.37;49.74;98871.31;5085700;28;20418;-92
2022/04/08 07:14:52;;;;;;;1.92;0.55;;;;;;;19.40;49.62;98852.59;5102601;28;20123;-91
2022/04/08 07:17:17;;;;;;;2.65;0.90;;;;;;;19.40;49.67;98844.66;5102361;28;20450;-90
2022/04/08 07:19:43;;;;;;;3.22;0.75;;;;;;;19.41;49.59;98846.34;5102907;28;20049;-91
2022/04/08 07:22:08;;;;;;;3.05;0.68;;;;;;;19.41;49.60;98849.00;5103070;28;20461;-91
2022/04/08 07:24:34;;;;;;;2.50;0.75;;;;;;;19.43;49.53;98849.78;5101684;28;20025;-92
2022/04/08 07:26:59;;;;;;;2.95;0.90;;;;;;;19.44;49.58;98848.81;5101037;28;20317;-91
2022/04/08 07:29:25;;;;;;;3.10;0.80;;;;;;;19.45;49.72;98848.72;5084760;28;20041;-91
2022/04/08 07:31:50;;;;;;;4.03;0.70;;;;;;;19.47;49.72;98859.22;5083744;28;20055;-91
2022/04/08 07:34:16;;;;;;;3.22;0.70;;;;;;;19.47;49.68;98851.28;5084150;28;20024;-91
2022/04/08 07:36:41;;;;;;;1.92;0.70;;;;;;;19.46;49.74;98849.56;5101743;28;20040;-92
2022/04/08 07:39:07;;;;;;;3.47;0.82;;;;;;;19.51;49.59;98852.75;5101134;28;20021;-92
2022/04/08 07:41:32;;;;;;;2.15;0.60;;;;;;;19.50;49.56;98845.78;5083216;28;20020;-91
2022/04/08 07:43:58;;;;;;;4.05;0.85;;;;;;;19.49;49.70;98844.06;5099952;28;20027;-91
2022/04/08 07:46:24;;;;;;;2.25;0.63;;;;;;;19.50;49.58;98840.47;5100803;28;20036;-90
2022/04/08 07:48:49;;;;;;;1.55;0.75;;;;;;;19.51;49.58;98836.88;5101718;28;20033;-90
2022/04/08 07:51:15;;;;;;;3.05;0.88;;;;;;;19.55;49.56;98838.38;5085781;28;20157;-90
2022/04/08 07:53:40;;;;;;;3.63;1.00;;;;;;;19.55;49.44;98838.38;5100844;28;20028;-91
2022/04/08 07:56:06;;;;;;;3.05;0.73;;;;;;;19.57;49.83;98828.53;5099533;28;20113;-91
2022/04/08 07:58:32;;;;;;;3.65;0.80;;;;;;;19.58;49.51;98826.75;5098453;28;20032;-90
2022/04/08 08:00:58;;;;;;;4.68;1.15;;;;;;;19.61;49.23;98825.72;5098396;28;20500;-90
2022/04/08 08:03:24;;;;;;;3.20;1.10;;;;;;;19.62;49.24;98816.81;5096486;28;20029;-90
2022/04/08 08:05:52;;;;;;;2.75;0.70;;;;;;;19.61;49.40;98825.72;5097686;28;20158;-90
2022/04/08 08:08:19;;;;;;;1.63;0.80;;;;;;;19.64;49.29;98823.72;5098162;28;20078;-90
2022/04/08 08:10:44;;;;;;;1.30;0.60;;;;;;;19.67;49.39;98815.56;5081081;28;20048;-91
2022/04/08 08:13:10;;;;;;;2.67;0.65;;;;;;;19.67;49.45;98809.44;5081508;28;20031;-90
2022/04/08 08:15:40;;;;;;;2.70;0.80;;;;;;;19.68;49.32;98811.13;5081088;28;20058;-90
2022/04/08 08:18:07;;;;;;;2.40;0.70;;;;;;;19.70;49.44;98809.22;5080553;28;20063;-90
2022/04/08 08:20:33;;;;;;;1.95;0.80;;;;;;;19.71;49.45;98813.56;5096582;28;20038;-91
2022/04/08 08:22:58;;;;;;;3.25;0.80;;;;;;;19.73;49.50;98825.72;5081979;28;20044;-90
2022/04/08 08:25:24;;;;;;;5.85;1.00;;;;;;;19.73;49.14;98820.44;5081885;28;20024;-90
2022/04/08 08:28:01;;;;;;;3.40;0.95;;;;;;;19.77;49.23;98831.69;5097641;28;20098;-91
2022/04/08 08:30:31;;;;;;;2.72;0.80;;;;;;;19.78;48.98;98830.75;5098413;28;20039;-91
2022/04/08 08:32:58;;;;;;;3.53;0.70;;;;;;;19.81;49.03;98833.19;5097816;28;20020;-90
2022/04/08 08:35:25;;;;;;;2.85;0.68;;;;;;;19.81;49.03;98825.22;5096886;28;20118;-90
2022/04/08 08:37:51;;;;;;;2.80;0.77;;;;;;;19.82;49.18;98818.97;5097140;28;20032;-90
2022/04/08 08:40:18;;;;;;;1.77;0.70;;;;;;;19.85;49.07;98818.78;5096241;28;20362;-91
2022/04/08 08:42:44;;;;;;;3.78;0.80;;;;;;;19.86;49.30;98815.19;5096979;28;20632;-90
2022/04/08 08:45:12;;;;;;;2.95;0.73;;;;;;;19.88;48.87;98811.59;5080902;28;20020;-90
2022/04/08 08:47:38;;;;;;;3.83;0.90;;;;;;;19.90;48.86;98821.13;5097290;28;20032;-90
2022/04/08 08:50:08;;;;;;;2.60;0.82;;;;;;;19.93;48.79;98820.06;5097542;28;20400;-91
2022/04/08 08:52:34;;;;;;;2.42;0.70;;;;;;;19.94;48.95;98817.31;5097263;28;20020;-90
2022/04/08 08:55:05;;;;;;;2.17;0.68;;;;;;;19.96;48.66;98814.63;5100094;28;20051;-90
2022/04/08 08:57:31;;;;;;;1.52;0.77;;;;;;;19.97;48.87;98808.38;5097921;28;20029;-91
2022/04/08 09:00:13;;;;;;;2.00;0.80;;;;;;;19.99;48.65;98809.09;5084406;28;20500;-91
2022/04/08 09:02:39;;;;;;;2.97;0.55;;;;;;;20.01;48.51;98807.22;5100059;28;20027;-91
2022/04/08 09:05:15;;;;;;;2.03;0.80;;;;;;;20.05;48.54;98813.97;5099127;28;20035;-90
2022/04/08 09:07:41;;;;;;;2.85;0.85;;;;;;;20.07;48.57;98808.59;5099524;28;20032;-91
2022/04/08 09:10:07;;;;;;;1.45;0.50;;;;;;;20.09;48.74;98798.72;5104624;28;20466;-91
2022/04/08 09:12:34;;;;;;;3.17;0.55;;;;;;;20.09;48.65;98796.06;5101638;28;20051;-88
2022/04/08 09:15:01;;;;;;;2.17;0.73;;;;;;;20.10;48.42;98801.28;5097592;28;20034;-88
2022/04/08 09:17:28;;;;;;;2.50;0.70;;;;;;;20.11;48.85;98795.03;5080773;28;20021;-88
2022/04/08 09:19:55;;;;;;;2.28;0.60;;;;;;;20.12;48.44;98804.69;5094468;28;20127;-89
2022/04/08 09:22:28;;;;;;;2.10;0.70;;;;;;;20.16;48.53;98802.69;5095583;28;20024;-89
2022/04/08 09:24:53;;;;;;;1.45;0.60;;;;;;;20.18;48.44;98807.84;5096298;28;20032;-88
2022/04/08 09:27:21;;;;;;;2.05;0.70;;;;;;;20.19;48.32;98809.56;5081850;28;20020;-88
2022/04/08 09:29:46;;;;;;;2.67;0.70;;;;;;;20.19;48.21;98807.75;5081108;28;20020;-88
2022/04/08 09:32:14;;;;;;;1.00;0.60;;;;;;;20.22;48.37;98798.75;5080856;28;20165;-88
2022/04/08 09:34:43;;;;;;;1.77;0.50;;;;;;;20.22;48.26;98786.38;5098837;28;20027;-89
2022/04/08 09:37:13;;;;;;;2.22;0.60;;;;;;;20.26;48.11;98787.00;5098049;28;20047;-89
2022/04/08 09:40:03;;;;;;;1.10;0.52;;;;;;;20.29;47.95;98783.28;5095817;28;20024;-89
2022/04/08 09:42:47;;;;;;;1.60;0.52;;;;;;;20.30;48.08;98783.19;5096721;28;20037;-90
2022/04/08 09:45:13;;;;;;;1.52;0.52;;;;;;;20.31;48.15;98771.63;5079852;28;20081;-91
2022/04/08 09:47:39;;;;;;;2.33;0.40;;;;;;;20.33;47.99;98774.19;5095202;28;20024;-90
2022/04/08 09:50:05;;;;;;;2.67;0.68;;;;;;;20.33;48.10;98759.13;5095388;28;20031;-88
2022/04/08 09:52:32;;;;;;;1.55;0.63;;;;;;;20.36;48.08;98747.47;5094777;28;20016;-89
2022/04/08 09:55:00;;;;;;;1.05;0.50;;;;;;;20.38;47.88;98764.09;5095015;28;20115;-89
2022/04/08 09:57:32;;;;;;;2.92;0.60;;;;;;;20.41;48.13;98770.97;5096407;28;20020;-89
2022/04/08 10:00:00;;;;;;;1.58;0.40;;;;;;;20.41;47.83;98776.28;5095419;28;20465;-93
2022/04/08 10:02:29;;;;;;;3.05;0.80;;;;;;;20.45;47.82;98777.78;5095364;28;20020;-89
2022/04/08 10:04:58;;;;;;;2.20;0.65;;;;;;;20.46;47.84;98771.50;5095538;28;20033;-89
2022/04/08 10:07:24;;;;;;;1.95;0.60;;;;;;;20.48;47.82;98756.38;5096646;28;20139;-89
2022/04/08 10:10:06;;;;;;;3.45;0.80;;;;;;;20.48;47.50;98773.09;5079331;28;20021;-90
2022/04/08 10:13:19;;;;;;;2.33;0.82;;;;;;;20.50;47.39;98781.78;5081058;28;20021;-91
2022/04/08 10:16:11;;;;;;;2.92;0.60;;;;;;;20.53;47.34;98770.13;5088476;28;20041;-91
2022/04/08 10:18:41;;;;;;;2.95;0.63;;;;;;;20.54;47.73;98763.88;5079225;28;20339;-90
2022/04/08 10:21:07;;;;;;;2.88;0.70;;;;;;;20.56;47.53;98761.97;5077449;28;20044;-90
2022/04/08 10:23:38;;;;;;;2.83;0.68;;;;;;;20.57;47.72;98761.00;5094049;28;20552;-90
2022/04/08 10:26:05;;;;;;;1.65;0.45;;;;;;;20.59;47.51;98761.75;5094173;28;20366;-90
2022/04/08 10:28:38;;;;;;;1.45;0.55;;;;;;;20.61;47.33;98751.91;5094373;28;20064;-88
2022/04/08 10:31:23;;;;;;;2.75;0.57;;;;;;;20.61;47.29;98757.19;5098321;28;20509;-88
2022/04/08 10:33:56;;;;;;;2.40;0.50;;;;;;;20.64;47.22;98767.56;5094675;28;20035;-91
2022/04/08 10:36:39;;;;;;;3.08;0.70;;;;;;;20.66;47.39;98768.31;5095631;28;20489;-87
2022/04/08 10:39:18;;;;;;;1.80;0.50;;;;;;;20.69;47.09;98769.91;5094598;28;20028;-91
2022/04/08 10:41:45;;;;;;;2.47;0.60;;;;;;;20.71;47.01;98769.78;5095620;28;20028;-89
2022/04/08 10:44:11;;;;;;;2.38;0.70;;;;;;;20.71;47.01;98759.19;5092635;28;20115;-89
2022/04/08 10:46:49;;;;;;;1.65;0.50;;;;;;;20.74;46.94;98761.63;5092174;28;20024;-91
2022/04/08 10:49:15;;;;;;;2.30;0.63;;;;;;;20.75;46.93;98758.00;5075057;28;20088;-91
2022/04/08 10:51:46;;;;;;;1.00;0.43;;;;;;;20.77;46.70;98761.38;5091805;28;20462;-91
2022/04/08 10:54:11;;;;;;;1.45;0.45;;;;;;;20.78;46.97;98757.81;5092111;28;20048;-90
2022/04/08 10:56:37;;;;;;;1.63;0.50;;;;;;;20.78;46.88;98763.94;5080732;28;20040;-91
2022/04/08 10:59:04;;;;;;;1.63;0.50;;;;;;;20.81;47.18;98767.34;5093022;28;20024;-91
2022/04/08 11:01:34;;;;;;;1.77;0.60;;;;;;;20.81;46.87;98746.13;5095677;28;20020;-91
2022/04/08 11:04:05;;;;;;;1.75;0.50;;;;;;;20.82;47.21;98726.63;5096658;28;20028;-89
2022/04/08 11:06:36;;;;;;;1.60;0.50;;;;;;;20.82;46.74;98740.69;5099408;28;20020;-89
2022/04/08 11:09:10;;;;;;;1.85;0.57;;;;;;;20.85;46.47;98740.53;5076315;28;20028;-90
2022/04/08 11:11:39;;;;;;;1.65;0.57;;;;;;;20.86;46.93;98707.75;5093801;28;20028;-90
2022/04/08 11:14:05;;;;;;;0.95;0.50;;;;;;;20.87;46.80;98725.34;5093923;28;20020;-91
2022/04/08 11:16:36;;;;;;;1.60;0.70;;;;;;;20.88;47.13;98715.59;5094206;28;20111;-90
2022/04/08 11:19:10;;;;;;;1.60;0.68;;;;;;;20.88;46.64;98721.72;5096688;28;20104;-90
2022/04/08 11:21:40;;;;;;;1.60;0.60;;;;;;;20.90;46.67;98730.44;5096890;28;20024;-89
2022/04/08 11:24:09;;;;;;;3.15;0.68;;;;;;;20.90;46.58;98719.81;5096585;28;20032;-89
2022/04/08 11:26:49;;;;;;;0.98;0.35;;;;;;;20.93;46.61;98714.28;5081207;28;20034;-90
2022/04/08 11:29:17;;;;;;;1.13;0.45;;;;;;;20.95;46.71;98710.66;5096817;28;20465;-90
2022/04/08 11:31:44;;;;;;;1.80;0.60;;;;;;;20.96;46.56;98709.75;5097732;28;20025;-90
2022/04/08 11:34:13;;;;;;;2.83;0.77;;;;;;;20.97;46.71;98722.03;5099278;28;20017;-90
2022/04/08 11:36:39;;;;;;;1.60;0.68;;;;;;;20.98;46.48;98711.31;5097290;28;20032;-89
2022/04/08 11:39:06;;;;;;;1.75;0.90;;;;;;;20.98;46.65;98706.00;5096807;28;20028;-90
2022/04/08 11:41:32;;;;;;;2.30;0.45;;;;;;;20.99;46.67;98706.84;5081139;28;20457;-90
2022/04/08 11:43:58;;;;;;;1.45;0.40;;;;;;;21.01;46.63;98699.66;5096887;28;20035;-90
2022/04/08 11:46:23;;;;;;;1.88;0.57;;;;;;;21.02;46.71;98696.03;5096100;28;20021;-90
2022/04/08 11:48:49;;;;;;;1.08;0.50;;;;;;;21.04;46.62;98702.06;5080798;28;20047;-90
2022/04/08 11:51:22;;;;;;;2.00;0.80;;;;;;;21.04;46.74;98702.91;5096227;28;20029;-90
2022/04/08 11:53:50;;;;;;;1.88;0.70;;;;;;;21.05;46.42;98701.09;5095527;28;20024;-91
2022/04/08 11:56:24;;;;;;;1.05;0.50;;;;;;;21.07;46.53;98701.84;5079522;28;20032;-90
2022/04/08 11:58:56;;;;;;;3.47;0.90;;;;;;;21.09;46.80;98705.22;5095954;28;20025;-88
2022/04/08 12:01:22;;;;;;;1.15;0.60;;;;;;;21.09;46.44;98702.56;5099201;28;20020;-90
2022/04/08 12:03:54;;;;;;;1.80;0.60;;;;;;;21.10;46.58;98698.94;5098065;28;20446;-91
2022/04/08 12:06:20;;;;;;;1.95;0.65;;;;;;;21.11;46.38;98697.97;5081670;28;20107;-90
2022/04/08 12:08:48;;;;;;;2.53;0.70;;;;;;;21.12;46.73;98698.84;5097002;28;20055;-90
2022/04/08 12:11:15;;;;;;;2.47;0.80;;;;;;;21.12;46.49;98694.38;5093733;28;20024;-89
2022/04/08 12:13:42;;;;;;;1.40;0.50;;;;;;;21.15;46.48;98701.25;5094041;28;20052;-90
2022/04/08 12:16:13;;;;;;;1.63;0.70;;;;;;;21.15;46.34;98690.63;5094295;28;20035;-89
2022/04/08 12:18:51;;;;;;;1.50;0.50;;;;;;;21.16;46.49;98697.66;5077775;28;20489;-89
2022/04/08 12:21:25;;;;;;;2.58;0.95;;;;;;;21.18;46.35;98696.59;5077877;28;20028;-90
2022/04/08 12:23:54;;;;;;;1.15;0.50;;;;;;;21.18;46.47;98688.63;5095097;28;20103;-91
2022/04/08 12:26:24;;;;;;;1.77;0.70;;;;;;;21.20;46.61;98688.50;5094543;28;20024;-90
2022/04/08 12:28:49;;;;;;;1.42;0.70;;;;;;;21.21;46.41;98668.13;5095080;28;20099;-91
2022/04/08 12:31:23;;;;;;;1.52;0.80;;;;;;;21.21;46.51;98665.47;5078743;28;20489;-90
2022/04/08 12:33:49;;;;;;;1.55;0.70;;;;;;;21.23;46.81;98663.53;5095304;28;20040;-91
2022/04/08 12:36:14;;;;;;;0.85;0.47;;;;;;;21.24;46.53;98658.13;5078313;28;20473;-91
2022/04/08 12:38:42;;;;;;;1.90;0.63;;;;;;;21.24;46.49;98649.31;5098415;28;20016;-91
2022/04/08 12:41:10;;;;;;;1.70;0.60;;;;;;;21.26;46.45;98645.59;5097314;28;20035;-91
2022/04/08 12:43:36;;;;;;;1.25;0.50;;;;;;;21.26;46.46;98639.47;5081556;28;20458;-89
2022/04/08 12:46:01;;;;;;;2.72;0.80;;;;;;;21.27;46.50;98641.13;5097594;28;20092;-91
2022/04/08 12:48:27;;;;;;;1.52;0.40;;;;;;;21.27;46.75;98636.69;5097293;28;20056;-89
2022/04/08 12:50:56;;;;;;;1.38;0.50;;;;;;;21.28;46.40;98640.16;5095420;28;20028;-89
2022/04/08 12:53:21;;;;;;;0.82;0.40;;;;;;;21.27;46.64;98649.97;5094957;28;20017;-90
2022/04/08 12:55:47;;;;;;;1.08;0.57;;;;;;;21.29;46.59;98647.16;5079885;28;20107;-89
2022/04/08 12:58:13;;;;;;;2.70;0.70;;;;;;;21.30;46.42;98646.19;5095177;28;20020;-90
2022/04/08 13:00:38;;;;;;;2.35;0.63;;;;;;;21.30;46.28;98640.91;5095038;28;20020;-89
2022/04/08 13:03:04;;;;;;;1.90;0.70;;;;;;;21.30;46.28;98628.47;5096875;28;20044;-89
2022/04/08 13:05:30;;;;;;;1.70;0.68;;;;;;;21.32;46.19;98628.38;5078634;28;20024;-90
2022/04/08 13:07:56;;;;;;;1.92;0.70;;;;;;;21.33;46.27;98603.53;5097140;28;20070;-87
2022/04/08 13:10:22;;;;;;;1.75;0.50;;;;;;;21.33;46.53;98619.44;5080840;28;20071;-88
2022/04/08 13:12:48;;;;;;;2.25;0.57;;;;;;;21.33;46.79;98615.00;5096567;28;20350;-90
2022/04/08 13:15:13;;;;;;;0.88;0.47;;;;;;;21.36;46.57;98616.53;5096294;28;20049;-89
2022/04/08 13:17:40;;;;;;;2.05;0.82;;;;;;;21.36;46.45;98616.53;5078550;28;20091;-90
2022/04/08 13:20:06;;;;;;;2.17;0.60;;;;;;;21.37;46.68;98612.97;5078654;28;20047;-89
2022/04/08 13:22:32;;;;;;;1.25;0.50;;;;;;;21.38;46.28;98612.00;5080235;28;20157;-90
2022/04/08 13:24:58;;;;;;;1.30;0.40;;;;;;;21.38;46.52;98612.00;5099820;28;20038;-90
2022/04/08 13:27:24;;;;;;;1.30;0.65;;;;;;;21.41;46.65;98614.38;5100016;28;20040;-91
2022/04/08 13:29:50;;;;;;;1.13;0.50;;;;;;;21.41;46.30;98610.91;5103935;28;20035;-91
2022/04/08 13:32:19;;;;;;;1.70;0.65;;;;;;;21.42;46.23;98605.50;5086481;28;20040;-90
2022/04/08 13:34:46;;;;;;;1.45;0.50;;;;;;;21.43;46.35;98609.84;5077961;28;20497;-90
2022/04/08 13:37:13;;;;;;;1.45;0.50;;;;;;;21.43;46.35;98599.22;5078088;28;20032;-89
2022/04/08 13:39:39;;;;;;;1.75;0.60;;;;;;;21.45;46.32;98607.91;5093269;28;20028;-89
2022/04/08 13:42:06;;;;;;;2.15;0.50;;;;;;;21.45;46.58;98597.28;5094009;28;20024;-90
2022/04/08 13:44:32;;;;;;;0.88;0.68;;;;;;;21.45;46.44;98597.28;5096207;28;20107;-90
2022/04/08 13:46:58;;;;;;;1.50;0.63;;;;;;;21.46;46.60;98598.97;5093612;28;20028;-90
2022/04/08 13:49:24;;;;;;;3.97;0.90;;;;;;;21.48;46.45;98598.00;5095103;28;20038;-91
2022/04/08 13:51:51;;;;;;;1.70;0.77;;;;;;;21.49;46.25;98591.75;5095827;28;20119;-90
2022/04/08 13:54:17;;;;;;;1.75;0.57;;;;;;;21.50;46.90;98585.47;5096125;28;20089;-91
2022/04/08 13:56:43;;;;;;;1.33;0.50;;;;;;;21.50;46.30;98582.81;5095874;28;20047;-91
2022/04/08 13:59:09;;;;;;;0.95;0.40;;;;;;;21.50;46.65;98577.50;5080211;28;20024;-92
2022/04/08 14:01:34;;;;;;;1.13;0.52;;;;;;;21.50;46.49;98577.50;5079989;28;20029;-91
2022/04/08 14:04:00;;;;;;;1.95;0.85;;;;;;;21.51;46.31;98573.88;5080524;28;20123;-91